Time;durP1;ratioP1;P1;durP2;ratioP2;P2;SDS_P1;SDS_P2;PMS_P1;PMS_P2;Temp;Humidity;BMP_temperature;BMP_pressure;BME280_temperature;BME280_humidity;BME280_pressure;Samples;Min_cycle;Max_cycle;Signal;HPM_P1;HPM_P2
2023/07/25 00:01:09;;;;;;;11.70;6.20;;;;;;;14.83;100.00;100552.11;105676;1259;63927;-42
2023/07/25 00:44:42;;;;;;;11.60;6.40;;;;;;;14.54;100.00;100588.99;102718;1293;602558;-43
2023/07/25 00:48:58;;;;;;;12.90;6.30;;;;;;;14.57;100.00;100589.93;102385;1290;601889;-43
2023/07/25 00:51:28;;;;;;;9.50;6.50;;;;;;;14.60;100.00;100569.86;104782;1270;61829;-42
2023/07/25 00:53:56;;;;;;;9.20;6.70;;;;;;;14.63;100.00;100566.79;104758;1266;60454;-43
2023/07/25 00:56:24;;;;;;;10.50;6.60;;;;;;;14.65;100.00;100566.23;104763;1270;72261;-42
2023/07/25 00:58:51;;;;;;;16.00;6.40;;;;;;;14.62;100.00;100568.40;104730;1270;65455;-42
2023/07/25 01:01:18;;;;;;;9.20;6.40;;;;;;;14.58;100.00;100576.90;104050;1264;1231044;-43
2023/07/25 01:03:45;;;;;;;12.10;6.00;;;;;;;14.53;100.00;100581.05;105027;1267;62891;-42
2023/07/25 01:06:13;;;;;;;10.10;6.70;;;;;;;14.54;100.00;100581.71;104933;1265;60936;-42
2023/07/25 01:08:54;;;;;;;11.10;6.20;;;;;;;14.56;100.00;100573.65;105031;1266;72314;-43
2023/07/25 01:11:23;;;;;;;11.70;6.60;;;;;;;14.58;100.00;100563.86;105114;1267;66416;-42
2023/07/25 01:13:50;;;;;;;11.70;6.40;;;;;;;14.58;100.00;100549.63;105057;1264;72793;-43
2023/07/25 01:16:23;;;;;;;14.40;7.00;;;;;;;14.57;100.00;100541.86;105120;1263;61957;-43
2023/07/25 01:18:51;;;;;;;11.70;6.90;;;;;;;14.57;100.00;100531.77;104713;1264;60440;-43
2023/07/25 01:21:19;;;;;;;13.60;6.90;;;;;;;14.56;100.00;100523.80;105204;1264;71912;-43
2023/07/25 01:23:47;;;;;;;13.00;6.80;;;;;;;14.57;100.00;100515.26;105147;1264;64098;-43
2023/07/25 01:26:16;;;;;;;8.20;5.60;;;;;;;14.59;100.00;100509.66;104722;1266;73126;-42
2023/07/25 01:28:43;;;;;;;8.50;6.60;;;;;;;14.58;100.00;100498.38;104947;1267;61937;-42
2023/07/25 01:31:10;;;;;;;15.60;6.40;;;;;;;14.57;100.00;100493.58;105064;1264;60293;-42
2023/07/25 01:33:37;;;;;;;7.80;6.30;;;;;;;14.54;100.00;100489.50;105101;1267;72995;-43
2023/07/25 01:36:04;;;;;;;8.70;6.20;;;;;;;14.53;100.00;100483.45;105103;1267;65451;-43
2023/07/25 01:38:31;;;;;;;9.70;6.50;;;;;;;14.51;100.00;100475.17;105394;1264;72503;-43
2023/07/25 01:40:58;;;;;;;27.40;6.60;;;;;;;14.45;100.00;100470.00;105077;1263;61943;-43
2023/07/25 01:43:25;;;;;;;10.60;6.90;;;;;;;14.37;100.00;100470.98;104937;1263;60879;-43
2023/07/25 01:45:52;;;;;;;15.50;6.70;;;;;;;14.29;100.00;100473.14;105252;1263;73575;-43
2023/07/25 01:48:18;;;;;;;14.20;5.80;;;;;;;14.22;100.00;100471.45;104989;1267;65510;-43
2023/07/25 01:50:45;;;;;;;12.80;6.40;;;;;;;14.17;100.00;100473.02;105076;1263;72526;-44
2023/07/25 01:53:12;;;;;;;7.00;6.30;;;;;;;14.10;100.00;100478.81;105096;1264;62112;-43
2023/07/25 01:55:39;;;;;;;8.40;5.80;;;;;;;14.05;100.00;100480.20;105119;1263;60271;-43
2023/07/25 01:58:06;;;;;;;6.80;6.20;;;;;;;14.01;100.00;100481.88;104781;1265;71928;-43
2023/07/25 02:00:33;;;;;;;9.50;5.90;;;;;;;13.96;100.00;100480.80;104954;1268;65588;-42
2023/07/25 02:03:00;;;;;;;7.60;6.00;;;;;;;13.92;100.00;100483.89;105014;1263;72713;-43
2023/07/25 02:05:27;;;;;;;11.30;6.00;;;;;;;13.88;100.00;100481.77;104989;1267;62182;-43
2023/07/25 02:07:56;;;;;;;13.40;6.50;;;;;;;13.83;100.00;100487.83;105540;1259;59577;-42
2023/07/25 02:10:23;;;;;;;12.10;6.40;;;;;;;13.79;100.00;100490.04;105616;1254;73064;-42
2023/07/25 02:12:51;;;;;;;13.20;5.80;;;;;;;13.78;100.00;100490.23;105822;1256;64570;-43
2023/07/25 02:15:18;;;;;;;8.80;6.00;;;;;;;13.77;100.00;100488.88;105607;1257;72653;-43
2023/07/25 02:17:45;;;;;;;7.10;6.30;;;;;;;13.77;100.00;100492.86;105539;1260;62006;-43
2023/07/25 02:20:13;;;;;;;7.30;5.70;;;;;;;13.78;100.00;100489.20;105783;1257;60328;-43
2023/07/25 02:22:40;;;;;;;7.70;5.90;;;;;;;13.79;100.00;100486.21;105738;1260;72880;-43
2023/07/25 02:25:07;;;;;;;6.80;5.80;;;;;;;13.84;100.00;100490.39;105565;1260;65411;-43
2023/07/25 02:27:34;;;;;;;13.90;6.20;;;;;;;13.88;100.00;100486.45;105618;1256;72742;-42
2023/07/25 02:30:01;;;;;;;7.30;5.60;;;;;;;13.92;100.00;100485.98;105629;1256;62321;-42
2023/07/25 02:32:28;;;;;;;6.20;5.60;;;;;;;13.93;100.00;100482.80;105701;1257;60283;-43
2023/07/25 02:34:55;;;;;;;12.10;5.90;;;;;;;13.94;100.00;100486.79;105667;1259;72822;-43
2023/07/25 02:37:53;;;;;;;10.80;6.20;;;;;;;13.95;100.00;100491.10;105697;1256;65364;-43
2023/07/25 02:40:20;;;;;;;11.90;6.10;;;;;;;13.98;100.00;100490.65;105512;1255;72714;-44
2023/07/25 02:42:47;;;;;;;7.40;5.80;;;;;;;14.01;100.00;100490.38;105473;1257;60502;-44
2023/07/25 02:45:14;;;;;;;8.20;6.10;;;;;;;14.04;100.00;100488.38;105562;1256;60550;-44
2023/07/25 02:47:41;;;;;;;12.70;6.40;;;;;;;14.06;100.00;100484.83;105571;1259;73056;-43
2023/07/25 02:50:09;;;;;;;6.60;5.50;;;;;;;14.10;100.00;100486.79;105603;1256;64050;-44
2023/07/25 02:52:36;;;;;;;7.70;5.50;;;;;;;14.15;100.00;100488.73;105512;1260;72668;-44
2023/07/25 02:55:05;;;;;;;16.70;5.70;;;;;;;14.20;100.00;100485.77;105583;1257;61938;-43
2023/07/25 02:57:31;;;;;;;9.90;5.50;;;;;;;14.29;100.00;100486.70;105625;1260;59571;-44
2023/07/25 02:59:59;;;;;;;6.40;5.70;;;;;;;14.38;100.00;100490.56;105521;1257;73087;-44
2023/07/25 03:02:25;;;;;;;6.80;5.50;;;;;;;14.48;100.00;100492.83;105667;1259;65486;-44
2023/07/25 03:04:52;;;;;;;13.70;5.50;;;;;;;14.60;100.00;100495.73;105526;1256;72660;-43
2023/07/25 03:07:19;;;;;;;7.80;6.50;;;;;;;14.72;100.00;100494.98;105568;1259;61942;-44
2023/07/25 03:09:46;;;;;;;11.00;5.90;;;;;;;14.85;100.00;100497.13;105635;1260;59636;-43
2023/07/25 03:12:13;;;;;;;6.50;5.90;;;;;;;14.99;100.00;100502.39;105503;1256;71682;-46
2023/07/25 03:14:40;;;;;;;10.10;6.20;;;;;;;15.11;100.00;100502.80;105555;1259;66250;-44
2023/07/25 03:17:07;;;;;;;12.20;6.10;;;;;;;15.25;100.00;100510.33;105538;1256;71550;-44
2023/07/25 03:19:34;;;;;;;6.70;5.90;;;;;;;15.36;100.00;100518.07;105635;1257;61829;-44
2023/07/25 03:22:00;;;;;;;8.20;6.00;;;;;;;15.50;100.00;100521.73;105679;1255;61819;-44
2023/07/25 03:24:27;;;;;;;11.10;5.30;;;;;;;15.64;100.00;100518.42;105516;1256;72941;-41
2023/07/25 03:26:54;;;;;;;9.00;5.80;;;;;;;15.79;100.00;100519.95;105520;1258;62921;-44
2023/07/25 03:29:22;;;;;;;11.70;4.90;;;;;;;15.92;100.00;100523.27;105703;1256;72405;-44
2023/07/25 03:31:49;;;;;;;9.20;5.40;;;;;;;16.05;100.00;100521.91;105555;1260;61988;-44
2023/07/25 03:34:16;;;;;;;7.10;5.90;;;;;;;16.18;100.00;100528.86;105608;1257;60308;-44
2023/07/25 03:36:42;;;;;;;5.90;5.10;;;;;;;16.31;100.00;100532.89;105682;1256;72834;-44
2023/07/25 03:39:10;;;;;;;8.90;5.90;;;;;;;16.43;100.00;100535.86;105690;1259;65517;-41
2023/07/25 03:41:37;;;;;;;10.80;5.30;;;;;;;16.57;100.00;100554.96;105690;1256;72547;-44
2023/07/25 03:44:04;;;;;;;14.10;5.80;;;;;;;16.71;100.00;100567.78;105521;1259;61991;-43
2023/07/25 03:46:31;;;;;;;7.80;5.20;;;;;;;16.88;100.00;100578.56;105733;1256;60259;-44
2023/07/25 03:48:58;;;;;;;6.80;5.30;;;;;;;17.06;100.00;100590.73;105542;1257;72977;-42
2023/07/25 03:51:25;;;;;;;12.10;5.20;;;;;;;17.27;100.00;100606.39;105523;1259;65289;-43
2023/07/25 03:53:52;;;;;;;6.20;5.50;;;;;;;17.49;100.00;100615.53;105669;1259;72452;-42
2023/07/25 03:56:19;;;;;;;16.00;5.90;;;;;;;17.70;100.00;100636.23;105691;1259;61967;-43
2023/07/25 03:58:46;;;;;;;9.70;5.40;;;;;;;17.92;100.00;100654.79;105604;1256;60311;-44
2023/07/25 04:01:13;;;;;;;6.90;4.40;;;;;;;18.18;100.00;100678.23;105524;1259;72903;-44
2023/07/25 04:03:40;;;;;;;6.10;5.00;;;;;;;18.55;100.00;100707.27;105646;1259;64201;-44
2023/07/25 04:06:07;;;;;;;10.40;4.80;;;;;;;18.99;100.00;100732.23;105588;1256;72430;-45
2023/07/25 04:08:33;;;;;;;7.10;4.60;;;;;;;19.49;100.00;100750.06;105365;1259;60551;-43
2023/07/25 04:11:00;;;;;;;8.40;4.50;;;;;;;20.01;100.00;100772.43;105597;1255;60335;-44
2023/07/25 04:13:27;;;;;;;6.50;4.70;;;;;;;20.46;100.00;100759.73;105619;1256;72988;-44
2023/07/25 04:15:54;;;;;;;8.50;5.00;;;;;;;20.89;100.00;100690.35;105562;1260;65468;-42
2023/07/25 04:18:21;;;;;;;11.50;5.00;;;;;;;21.32;100.00;100579.57;105568;1261;72730;-43
2023/07/25 04:20:48;;;;;;;14.20;5.00;;;;;;;21.69;100.00;100405.20;105564;1261;60215;-43
2023/07/25 04:23:15;;;;;;;9.20;4.30;;;;;;;22.06;100.00;100209.75;105711;1255;60425;-43
2023/07/25 04:25:42;;;;;;;8.80;5.10;;;;;;;22.41;100.00;100027.42;105559;1259;72878;-43
2023/07/25 04:28:09;;;;;;;6.60;4.70;;;;;;;22.75;100.00;99858.73;105585;1260;65458;-42
2023/07/25 04:30:36;;;;;;;8.50;5.20;;;;;;;23.06;100.00;99775.39;105568;1256;72659;-43
2023/07/25 04:33:03;;;;;;;9.50;4.80;;;;;;;23.38;100.00;99760.66;105736;1256;60317;-44
2023/07/25 04:35:30;;;;;;;10.10;5.10;;;;;;;23.69;100.00;99771.28;105714;1259;59536;-43
2023/07/25 04:37:57;;;;;;;12.80;4.40;;;;;;;23.97;100.00;99796.29;105597;1256;72705;-43
2023/07/25 04:40:25;;;;;;;7.90;4.70;;;;;;;24.19;100.00;99834.02;105776;1259;65998;-44
2023/07/25 04:42:52;;;;;;;10.80;5.40;;;;;;;24.38;100.00;99869.77;105727;1260;72590;-44
2023/07/25 04:45:19;;;;;;;7.90;4.60;;;;;;;24.50;100.00;99922.54;105722;1256;60231;-43
2023/07/25 04:47:46;;;;;;;9.80;4.90;;;;;;;24.59;100.00;99956.05;105739;1256;60760;-44
2023/07/25 04:50:13;;;;;;;7.90;4.60;;;;;;;24.66;100.00;99982.75;105711;1257;72878;-44
2023/07/25 04:52:40;;;;;;;5.50;4.70;;;;;;;24.77;100.00;99987.16;105541;1260;65490;-43
2023/07/25 04:55:07;;;;;;;8.30;4.80;;;;;;;24.88;100.00;100003.82;105610;1256;72677;-44
2023/07/25 04:57:34;;;;;;;12.50;5.20;;;;;;;25.03;100.00;100015.67;105655;1258;60544;-44
2023/07/25 05:00:01;;;;;;;17.80;5.60;;;;;;;25.22;100.00;100028.51;105657;1256;61000;-45
2023/07/25 05:02:28;;;;;;;7.60;4.90;;;;;;;25.33;100.00;100043.81;105638;1256;73743;-44
2023/07/25 05:04:55;;;;;;;7.70;5.30;;;;;;;25.44;100.00;100058.20;105595;1258;65564;-44
2023/07/25 05:07:22;;;;;;;9.30;5.70;;;;;;;25.59;100.00;100065.75;105586;1256;72550;-44
2023/07/25 05:09:49;;;;;;;9.20;4.90;;;;;;;25.70;100.00;100072.88;105635;1259;60441;-44
2023/07/25 05:12:16;;;;;;;9.20;5.40;;;;;;;25.77;100.00;100084.77;105611;1256;60402;-44
2023/07/25 05:14:43;;;;;;;17.00;6.30;;;;;;;25.84;100.00;100094.45;105624;1257;73740;-44
2023/07/25 05:17:10;;;;;;;7.30;4.90;;;;;;;25.98;100.00;100101.35;105638;1259;65494;-44
2023/07/25 05:19:40;;;;;;;9.60;5.70;;;;;;;26.25;100.00;100092.58;105621;1256;72589;-43
2023/07/25 05:22:07;;;;;;;8.30;5.10;;;;;;;26.48;100.00;100095.02;105721;1259;60438;-44
2023/07/25 05:24:35;;;;;;;11.60;4.80;;;;;;;26.66;100.00;100100.27;105697;1256;60422;-44
2023/07/25 05:27:03;;;;;;;7.80;5.00;;;;;;;26.88;100.00;100100.58;105634;1259;73761;-44
2023/07/25 05:29:30;;;;;;;8.90;4.80;;;;;;;27.08;100.00;100098.33;105621;1259;65418;-43
2023/07/25 05:31:57;;;;;;;9.60;5.10;;;;;;;27.27;98.80;100094.45;105646;1258;71255;-44
2023/07/25 05:34:24;;;;;;;10.20;5.80;;;;;;;27.35;96.47;100097.73;105599;1256;60652;-44
2023/07/25 05:36:52;;;;;;;8.80;3.80;;;;;;;27.41;98.17;100099.71;105646;1256;60434;-44
2023/07/25 05:39:19;;;;;;;14.60;4.40;;;;;;;27.44;92.42;100090.14;105601;1256;73853;-45
2023/07/25 05:41:46;;;;;;;10.50;4.20;;;;;;;27.51;90.07;100086.11;105595;1259;65932;-45
2023/07/25 05:44:13;;;;;;;7.70;4.20;;;;;;;27.60;88.34;100089.08;105632;1257;72511;-44
2023/07/25 05:46:40;;;;;;;13.00;4.30;;;;;;;27.64;84.44;100083.50;105608;1259;60545;-43
2023/07/25 05:49:07;;;;;;;25.50;6.50;;;;;;;27.62;84.04;100102.02;105652;1255;60428;-42
2023/07/25 05:51:34;;;;;;;8.20;5.50;;;;;;;27.63;85.21;100118.15;105609;1256;73813;-43
2023/07/25 05:54:01;;;;;;;9.90;5.20;;;;;;;27.66;85.27;100116.80;105634;1259;65443;-42
2023/07/25 05:56:29;;;;;;;12.50;5.40;;;;;;;27.82;86.67;100121.13;105643;1256;72649;-43
2023/07/25 05:58:56;;;;;;;6.80;4.40;;;;;;;27.99;87.53;100119.38;105661;1256;60429;-43
2023/07/25 06:01:23;;;;;;;9.00;4.40;;;;;;;28.21;88.23;100107.05;105661;1256;60419;-44
2023/07/25 06:03:50;;;;;;;8.60;4.10;;;;;;;28.48;85.36;100102.16;105593;1256;73751;-44
2023/07/25 06:06:17;;;;;;;4.70;4.30;;;;;;;28.65;79.62;100076.84;105632;1259;65567;-43
2023/07/25 06:08:44;;;;;;;6.50;4.20;;;;;;;28.70;77.40;100085.06;105625;1256;72685;-43
2023/07/25 06:11:11;;;;;;;7.10;4.60;;;;;;;28.66;76.23;100092.55;105625;1259;60426;-43
2023/07/25 06:13:38;;;;;;;9.30;4.00;;;;;;;28.65;78.07;100113.03;105668;1256;60456;-44
2023/07/25 06:16:05;;;;;;;7.90;4.50;;;;;;;28.71;76.50;100096.85;105628;1259;73675;-43
2023/07/25 06:18:32;;;;;;;8.30;4.70;;;;;;;28.67;76.95;100117.12;105632;1259;65536;-43
2023/07/25 06:20:59;;;;;;;6.10;4.30;;;;;;;28.65;76.73;100113.77;105641;1256;72641;-43
2023/07/25 06:23:26;;;;;;;5.00;4.20;;;;;;;28.63;76.51;100110.94;105610;1259;60457;-43
2023/07/25 06:25:53;;;;;;;12.00;4.50;;;;;;;28.61;77.21;100110.58;105618;1256;60499;-46
2023/07/25 06:28:19;;;;;;;8.20;4.40;;;;;;;28.67;76.42;100103.51;105435;1259;73840;-44
2023/07/25 06:30:47;;;;;;;5.60;3.70;;;;;;;28.71;72.55;100069.53;105533;1256;65353;-45
2023/07/25 06:33:14;;;;;;;6.30;3.50;;;;;;;28.58;72.26;100094.02;105646;1256;72659;-45
2023/07/25 06:35:41;;;;;;;4.80;3.80;;;;;;;28.46;71.62;100086.79;105611;1259;60346;-44
2023/07/25 06:38:08;;;;;;;8.60;3.80;;;;;;;28.30;70.17;100076.40;105653;1255;60491;-44
2023/07/25 06:40:35;;;;;;;18.00;4.20;;;;;;;28.15;71.62;100117.92;105658;1259;73810;-44
2023/07/25 06:43:02;;;;;;;8.60;3.80;;;;;;;28.06;72.42;100123.24;105614;1259;65599;-44
2023/07/25 06:45:29;;;;;;;23.30;4.90;;;;;;;27.99;71.86;100106.05;105629;1256;72677;-44
2023/07/25 06:47:56;;;;;;;32.30;6.20;;;;;;;27.84;72.32;100116.73;105606;1259;60791;-43
2023/07/25 06:50:23;;;;;;;17.90;5.30;;;;;;;27.64;71.78;100116.19;105659;1256;60483;-44
2023/07/25 06:52:50;;;;;;;13.40;4.20;;;;;;;27.53;72.76;100129.42;105573;1257;73858;-44
2023/07/25 06:55:19;;;;;;;14.70;4.20;;;;;;;27.46;72.93;100132.53;105609;1259;65947;-44
2023/07/25 06:57:46;;;;;;;5.30;4.20;;;;;;;27.43;71.71;100117.02;105622;1256;72554;-44
2023/07/25 07:00:14;;;;;;;8.00;4.10;;;;;;;27.40;70.70;100101.14;105588;1259;60671;-44
2023/07/25 07:02:41;;;;;;;8.00;4.30;;;;;;;27.41;70.70;100105.68;105639;1259;60420;-44
2023/07/25 07:05:08;;;;;;;11.40;3.90;;;;;;;27.43;70.60;100110.84;105634;1256;73833;-44
2023/07/25 07:07:55;;;;;;;5.80;4.20;;;;;;;27.43;70.61;100114.19;105623;1259;65377;-44
2023/07/25 07:10:22;;;;;;;10.20;4.00;;;;;;;27.48;71.80;100128.77;105646;1256;72758;-44
2023/07/25 07:12:50;;;;;;;11.00;4.30;;;;;;;27.61;73.83;100143.36;105686;1259;60531;-45
2023/07/25 07:15:17;;;;;;;8.60;3.90;;;;;;;27.75;71.91;100107.27;105653;1256;60408;-45
2023/07/25 07:17:44;;;;;;;7.40;3.90;;;;;;;27.85;69.83;100079.25;105637;1259;73838;-44
2023/07/25 07:20:11;;;;;;;4.30;3.90;;;;;;;27.89;67.40;100028.66;105632;1260;65501;-43
2023/07/25 07:22:38;;;;;;;5.60;3.50;;;;;;;27.93;66.78;100040.31;105628;1259;72343;-44
2023/07/25 07:25:06;;;;;;;5.90;4.30;;;;;;;28.02;67.53;100063.54;105604;1259;60480;-43
2023/07/25 07:27:33;;;;;;;8.30;4.20;;;;;;;28.20;67.88;100068.17;105643;1255;60537;-44
2023/07/25 07:30:00;;;;;;;4.90;3.80;;;;;;;28.36;64.19;99982.03;105665;1255;73906;-43
2023/07/25 07:32:27;;;;;;;18.90;5.40;;;;;;;28.44;64.55;100011.01;105662;1259;65485;-44
2023/07/25 07:34:54;;;;;;;10.10;4.10;;;;;;;28.54;64.95;100035.34;105549;1257;72535;-45
2023/07/25 07:37:21;;;;;;;6.40;3.80;;;;;;;28.70;65.77;100054.71;105616;1259;60533;-44
2023/07/25 07:39:48;;;;;;;12.90;4.10;;;;;;;28.85;64.34;100002.45;105610;1256;60454;-45
2023/07/25 07:42:15;;;;;;;9.10;3.60;;;;;;;28.92;65.15;100036.66;105631;1259;73890;-44
2023/07/25 07:44:42;;;;;;;6.90;4.30;;;;;;;29.02;64.07;99984.88;105723;1259;65476;-44
2023/07/25 07:47:09;;;;;;;6.80;4.00;;;;;;;29.09;63.37;99969.62;105634;1255;72639;-45
2023/07/25 07:49:35;;;;;;;8.00;4.10;;;;;;;29.13;62.45;99939.49;105617;1256;60483;-44
2023/07/25 07:52:03;;;;;;;24.30;5.50;;;;;;;29.31;63.40;99983.30;105680;1255;60418;-45
2023/07/25 07:54:33;;;;;;;165.90;12.00;;;;;;;29.54;62.88;99966.56;105612;1256;72822;-44
2023/07/25 07:57:00;;;;;;;62.50;6.70;;;;;;;29.68;60.33;99888.83;105663;1259;65438;-44
2023/07/25 07:59:28;;;;;;;30.20;5.20;;;;;;;29.74;58.94;99859.70;105737;1259;73088;-44
2023/07/25 08:01:55;;;;;;;90.80;7.60;;;;;;;29.78;58.58;99858.92;105665;1255;60432;-43
2023/07/25 08:04:22;;;;;;;44.20;5.10;;;;;;;29.81;59.73;99933.39;105608;1256;60419;-45
2023/07/25 08:06:49;;;;;;;9.80;3.60;;;;;;;29.89;58.45;99862.04;105622;1259;73704;-45
2023/07/25 08:09:16;;;;;;;26.10;4.40;;;;;;;29.91;58.34;99860.36;105600;1259;65495;-44
2023/07/25 08:11:43;;;;;;;29.20;4.60;;;;;;;29.92;56.94;99794.85;105636;1257;72663;-46
2023/07/25 08:14:10;;;;;;;28.20;5.20;;;;;;;29.93;58.04;99855.90;105652;1259;60632;-45
2023/07/25 08:16:37;;;;;;;12.40;4.30;;;;;;;30.10;59.76;99944.89;105673;1256;60405;-44
2023/07/25 08:19:04;;;;;;;12.50;3.80;;;;;;;30.32;57.44;99823.14;105606;1258;73673;-44
2023/07/25 08:21:31;;;;;;;54.00;5.10;;;;;;;30.32;56.75;99814.02;105614;1259;65443;-44
2023/07/25 08:24:03;;;;;;;55.00;5.30;;;;;;;30.29;56.38;99813.90;105553;1255;72631;-45
2023/07/25 08:26:30;;;;;;;23.40;4.40;;;;;;;30.28;57.11;99868.78;105672;1255;60692;-45
2023/07/25 08:28:57;;;;;;;15.20;4.30;;;;;;;30.34;57.35;99875.94;105623;1256;60458;-45
2023/07/25 08:31:24;;;;;;;63.30;5.00;;;;;;;30.45;56.62;99810.64;105687;1258;74246;-45
2023/07/25 08:33:51;;;;;;;58.50;5.30;;;;;;;30.50;55.95;99793.32;105627;1259;65497;-44
2023/07/25 08:36:18;;;;;;;47.20;4.90;;;;;;;30.51;54.25;99698.48;105562;1255;72617;-44
2023/07/25 08:38:45;;;;;;;71.20;6.10;;;;;;;30.45;55.44;99795.02;105575;1259;60588;-44
2023/07/25 08:41:21;;;;;;;12.80;4.10;;;;;;;30.47;55.80;99819.37;105642;1257;60454;-45
2023/07/25 08:43:48;;;;;;;31.20;4.50;;;;;;;30.39;55.19;99769.52;105656;1259;73864;-50
2023/07/25 08:46:15;;;;;;;12.10;3.80;;;;;;;30.31;56.04;99845.30;105371;1259;65390;-44
2023/07/25 08:48:42;;;;;;;12.60;3.90;;;;;;;30.37;55.86;99831.99;105581;1257;72699;-44
2023/07/25 08:51:27;;;;;;;12.90;3.70;;;;;;;30.51;55.21;99789.35;105636;1259;60338;-43
2023/07/25 08:54:11;;;;;;;14.50;4.40;;;;;;;30.57;54.63;99754.70;105640;1256;60544;-44
2023/07/25 08:56:38;;;;;;;71.30;6.60;;;;;;;30.55;55.46;99828.02;105616;1256;73208;-44
2023/07/25 08:59:06;;;;;;;38.30;5.40;;;;;;;30.57;55.97;99847.02;105677;1259;65511;-44
2023/07/25 09:01:33;;;;;;;95.00;6.60;;;;;;;30.67;55.31;99795.56;105624;1256;72675;-44
2023/07/25 09:04:01;;;;;;;77.60;6.60;;;;;;;30.75;55.71;99837.21;105633;1256;60454;-44
2023/07/25 09:06:28;;;;;;;48.30;6.50;;;;;;;30.83;54.60;99766.73;105614;1257;60468;-45
2023/07/25 09:08:55;;;;;;;23.80;4.40;;;;;;;30.81;54.42;99759.38;105638;1259;73804;-43
2023/07/25 09:11:23;;;;;;;62.70;5.40;;;;;;;30.80;55.15;99809.11;105630;1259;65470;-44
2023/07/25 09:13:49;;;;;;;21.70;4.50;;;;;;;30.88;55.19;99816.66;105638;1257;72607;-43
2023/07/25 09:16:16;;;;;;;163.50;9.20;;;;;;;30.99;54.87;99787.98;105640;1259;60439;-44
2023/07/25 09:18:43;;;;;;;91.20;8.80;;;;;;;31.06;54.77;99773.58;105669;1256;60600;-44
2023/07/25 09:21:12;;;;;;;91.90;8.60;;;;;;;31.10;55.24;99811.17;105609;1257;73704;-45
2023/07/25 09:23:41;;;;;;;70.70;8.30;;;;;;;31.19;55.49;99820.96;105638;1257;64678;-45
2023/07/25 09:26:10;;;;;;;98.70;9.40;;;;;;;31.30;54.69;99762.54;105624;1257;72599;-44
2023/07/25 09:28:57;;;;;;;29.00;5.40;;;;;;;31.46;55.73;99826.52;105615;1256;60443;-44
2023/07/25 09:31:28;;;;;;;9.80;3.80;;;;;;;31.62;54.25;99713.73;105599;1256;60566;-44
2023/07/25 09:33:55;;;;;;;37.00;4.70;;;;;;;31.61;54.29;99742.39;105607;1258;73950;-45
2023/07/25 09:36:22;;;;;;;11.80;4.70;;;;;;;31.67;54.06;99720.45;105630;1259;65438;-44
2023/07/25 09:38:55;;;;;;;68.60;6.30;;;;;;;31.72;55.03;99801.49;105698;1256;72699;-45
2023/07/25 09:41:22;;;;;;;70.10;6.50;;;;;;;31.91;55.76;99833.16;105613;1259;60509;-44
2023/07/25 09:43:50;;;;;;;60.00;6.10;;;;;;;32.17;54.57;99739.80;105648;1257;60454;-44
2023/07/25 09:46:17;;;;;;;41.80;5.10;;;;;;;32.32;54.45;99725.88;105634;1259;73851;-43
2023/07/25 09:48:51;;;;;;;86.50;7.20;;;;;;;32.43;53.82;99694.05;105659;1259;65331;-44
2023/07/25 09:51:18;;;;;;;86.20;8.50;;;;;;;32.47;52.78;99629.30;105634;1256;72530;-43
2023/07/25 09:53:48;;;;;;;87.00;7.20;;;;;;;32.43;52.72;99629.66;105596;1259;60885;-44
2023/07/25 09:56:15;;;;;;;84.30;7.80;;;;;;;32.45;53.06;99672.40;105628;1257;60528;-44
2023/07/25 09:58:42;;;;;;;33.10;5.20;;;;;;;32.49;53.00;99667.96;105580;1258;74270;-44
2023/07/25 10:01:29;;;;;;;47.80;4.20;;;;;;;32.53;53.59;99710.67;105590;1259;65570;-45
2023/07/25 10:03:56;;;;;;;39.30;4.80;;;;;;;32.62;52.22;99601.05;105624;1259;72639;-42
2023/07/25 10:06:23;;;;;;;104.20;7.40;;;;;;;32.62;52.67;99651.43;105624;1259;60432;-45
2023/07/25 10:08:50;;;;;;;102.80;7.50;;;;;;;32.65;51.10;99523.33;105625;1256;60419;-45
2023/07/25 10:11:17;;;;;;;50.50;5.80;;;;;;;32.67;52.13;99632.64;105623;1257;73801;-44
2023/07/25 10:13:43;;;;;;;60.90;5.80;;;;;;;32.84;52.34;99651.59;105642;1259;65463;-45
2023/07/25 10:16:14;;;;;;;29.00;5.40;;;;;;;33.02;52.86;99692.62;105638;1256;72419;-45
2023/07/25 10:18:41;;;;;;;62.00;6.10;;;;;;;33.20;51.44;99547.44;105621;1260;60421;-44
2023/07/25 10:21:08;;;;;;;21.20;4.80;;;;;;;33.27;50.32;99447.88;105607;1260;60527;-46
2023/07/25 10:23:35;;;;;;;38.00;6.10;;;;;;;33.15;48.96;99331.36;105662;1260;72619;-47
2023/07/25 10:26:12;;;;;;;58.50;9.00;;;;;;;32.87;49.44;99406.21;105607;1256;65957;-46
2023/07/25 10:28:40;;;;;;;17.90;4.40;;;;;;;32.74;50.21;99524.70;105717;1256;73047;-45
2023/07/25 10:31:10;;;;;;;8.60;4.00;;;;;;;32.67;50.13;99513.31;105643;1259;60337;-44
2023/07/25 10:33:38;;;;;;;17.70;4.40;;;;;;;32.81;50.74;99577.66;105650;1256;60405;-47
2023/07/25 10:36:08;;;;;;;21.50;4.40;;;;;;;32.92;49.65;99456.70;105619;1257;72637;-44
2023/07/25 10:38:38;;;;;;;18.40;4.50;;;;;;;32.77;50.20;99527.55;105712;1256;65472;-44
2023/07/25 10:41:14;;;;;;;7.30;4.20;;;;;;;32.60;49.67;99495.94;105609;1259;72484;-45
2023/07/25 10:43:55;;;;;;;25.70;4.10;;;;;;;32.47;50.03;99530.81;105648;1259;60458;-43
2023/07/25 10:46:25;;;;;;;29.90;5.90;;;;;;;32.55;50.11;99537.19;105649;1256;60549;-44
2023/07/25 10:48:53;;;;;;;22.80;4.40;;;;;;;32.67;50.95;99614.52;105622;1259;73839;-45
2023/07/25 10:51:21;;;;;;;6.30;3.60;;;;;;;32.83;49.61;99479.54;105651;1257;65770;-44
2023/07/25 10:54:08;;;;;;;23.70;4.70;;;;;;;32.92;49.02;99382.42;105644;1257;72694;-45
2023/07/25 10:56:38;;;;;;;11.80;3.90;;;;;;;32.84;49.38;99441.64;105409;1259;60432;-45
2023/07/25 10:59:09;;;;;;;8.40;3.40;;;;;;;32.75;48.65;99374.98;105594;1262;60361;-47
2023/07/25 11:01:46;;;;;;;16.00;4.80;;;;;;;32.68;49.06;99430.77;105637;1257;73778;-45
2023/07/25 11:04:19;;;;;;;14.00;4.70;;;;;;;32.67;49.89;99514.27;105792;1257;65523;-44
2023/07/25 11:06:50;;;;;;;29.00;6.60;;;;;;;32.79;49.54;99469.71;105780;1253;72695;-44
2023/07/25 11:09:18;;;;;;;32.60;6.60;;;;;;;32.81;49.47;99454.44;105879;1259;60517;-44
2023/07/25 11:11:46;;;;;;;21.00;4.70;;;;;;;32.80;49.11;99427.44;105813;1256;60451;-44
2023/07/25 11:14:15;;;;;;;10.00;4.90;;;;;;;32.80;49.47;99469.67;105811;1258;73600;-44
2023/07/25 11:16:43;;;;;;;11.80;5.00;;;;;;;32.80;49.24;99448.34;105748;1258;65503;-44
2023/07/25 11:19:10;;;;;;;15.50;4.90;;;;;;;32.87;50.72;99594.67;105820;1257;72637;-44
2023/07/25 11:21:41;;;;;;;31.50;5.60;;;;;;;33.11;51.75;99681.80;105738;1257;60428;-44
2023/07/25 11:24:08;;;;;;;18.80;4.60;;;;;;;33.43;49.92;99463.48;105806;1253;60924;-46
2023/07/25 11:26:38;;;;;;;25.00;4.80;;;;;;;33.45;49.78;99438.73;105801;1257;73832;-45
2023/07/25 11:29:07;;;;;;;17.30;5.00;;;;;;;33.48;49.03;99364.88;105799;1258;65549;-44
2023/07/25 11:31:36;;;;;;;13.50;4.40;;;;;;;33.50;48.24;99278.27;105785;1253;72548;-44
2023/07/25 11:34:13;;;;;;;9.00;4.90;;;;;;;33.45;47.20;99176.70;105835;1257;60362;-43
2023/07/25 11:36:41;;;;;;;23.90;6.00;;;;;;;33.18;47.98;99289.11;105763;1254;60648;-44
2023/07/25 11:39:09;;;;;;;23.30;5.00;;;;;;;33.17;48.34;99321.06;105775;1258;74165;-45
2023/07/25 11:41:39;;;;;;;11.10;5.30;;;;;;;33.30;48.03;99305.49;105801;1257;65517;-44
2023/07/25 11:44:11;;;;;;;28.10;5.60;;;;;;;33.37;48.36;99344.92;105779;1259;72375;-44
2023/07/25 11:46:42;;;;;;;15.20;5.30;;;;;;;33.23;47.76;99313.62;105779;1256;60355;-45
2023/07/25 11:49:11;;;;;;;9.50;5.10;;;;;;;33.02;47.71;99288.77;105780;1258;60339;-43
2023/07/25 11:51:38;;;;;;;9.80;4.90;;;;;;;32.91;47.88;99306.25;105681;1260;73965;-45
2023/07/25 11:54:06;;;;;;;8.90;5.30;;;;;;;32.65;48.25;99374.47;105724;1258;65390;-44
2023/07/25 11:56:33;;;;;;;10.00;4.60;;;;;;;32.52;49.54;99519.08;105872;1259;72636;-44
2023/07/25 11:59:00;;;;;;;14.10;5.20;;;;;;;32.67;50.09;99591.31;105864;1257;60429;-45